Time;durP1;ratioP1;P1;durP2;ratioP2;P2;SDS_P1;SDS_P2;PMS_P1;PMS_P2;Temp;Humidity;BMP_temperature;BMP_pressure;BME280_temperature;BME280_humidity;BME280_pressure;Samples;Min_cycle;Max_cycle;Signal;HPM_P1;HPM_P2
2023/09/15 00:01:34;;;;;;;0.70;0.60;;;15.90;99.90;;;;;;5003158;28;20217;-71
2023/09/15 00:04:05;;;;;;;1.85;0.88;;;15.70;99.90;;;;;;5002318;28;20229;-71
2023/09/15 00:06:35;;;;;;;1.00;0.77;;;15.90;99.90;;;;;;5000532;28;20280;-71
2023/09/15 00:09:06;;;;;;;0.95;0.77;;;16.10;99.90;;;;;;5002002;28;20300;-71
2023/09/15 00:11:40;;;;;;;1.60;0.88;;;16.40;99.90;;;;;;5013235;28;20193;-71
2023/09/15 00:14:10;;;;;;;0.98;0.70;;;16.50;99.90;;;;;;4998388;28;20235;-72
2023/09/15 00:16:40;;;;;;;1.58;1.05;;;16.50;99.90;;;;;;5013709;28;20585;-72
2023/09/15 00:19:13;;;;;;;1.25;0.75;;;16.60;99.90;;;;;;5010578;28;20767;-72
2023/09/15 00:21:42;;;;;;;1.10;0.80;;;16.40;99.90;;;;;;5001897;28;20240;-72
2023/09/15 00:24:10;;;;;;;0.85;0.70;;;16.40;99.90;;;;;;5003949;28;20353;-71
2023/09/15 00:26:39;;;;;;;0.82;0.77;;;16.60;99.90;;;;;;5008860;28;20228;-72
2023/09/15 00:29:08;;;;;;;0.70;0.60;;;16.50;99.90;;;;;;5003806;28;20214;-72
2023/09/15 00:31:37;;;;;;;2.22;0.70;;;16.10;99.90;;;;;;5005416;28;20202;-73
2023/09/15 00:34:05;;;;;;;0.90;0.70;;;15.90;99.90;;;;;;5007977;28;20232;-71
2023/09/15 00:36:33;;;;;;;0.80;0.75;;;15.80;99.90;;;;;;5007964;28;20641;-71
2023/09/15 00:39:01;;;;;;;1.00;0.70;;;15.90;99.90;;;;;;5011435;28;20227;-72
2023/09/15 00:41:30;;;;;;;2.25;1.00;;;16.00;99.90;;;;;;5011165;28;20222;-72
2023/09/15 00:43:59;;;;;;;1.20;0.70;;;15.90;99.90;;;;;;5006235;28;20307;-72
2023/09/15 00:46:28;;;;;;;0.70;0.60;;;16.20;99.90;;;;;;5002337;28;20210;-72
2023/09/15 00:48:59;;;;;;;0.80;0.80;;;16.10;99.90;;;;;;5005156;28;20213;-72
2023/09/15 00:51:27;;;;;;;1.55;0.60;;;16.00;99.90;;;;;;5010772;28;20600;-71
2023/09/15 00:53:56;;;;;;;1.40;1.10;;;15.90;99.90;;;;;;5004198;28;20240;-70
2023/09/15 00:56:25;;;;;;;1.80;1.05;;;15.90;99.90;;;;;;5001813;28;20216;-70
2023/09/15 00:58:54;;;;;;;1.00;0.68;;;15.70;99.90;;;;;;5004368;28;20205;-71
2023/09/15 01:01:24;;;;;;;0.80;0.65;;;15.60;99.90;;;;;;5006748;28;20218;-70
2023/09/15 01:03:52;;;;;;;1.48;0.73;;;16.10;99.90;;;;;;5007796;28;20308;-71
2023/09/15 01:06:23;;;;;;;1.52;0.93;;;16.50;99.90;;;;;;5009307;28;20259;-71
2023/09/15 01:08:52;;;;;;;0.63;0.52;;;16.50;99.90;;;;;;5007898;28;20224;-71
2023/09/15 01:11:21;;;;;;;0.80;0.70;;;16.60;99.90;;;;;;5005169;28;20197;-70
2023/09/15 01:13:50;;;;;;;1.23;0.90;;;17.00;99.90;;;;;;5005169;28;20233;-71
2023/09/15 01:16:25;;;;;;;0.82;0.50;;;17.60;99.90;;;;;;5010222;28;20611;-72
2023/09/15 01:19:01;;;;;;;1.83;0.88;;;17.80;99.90;;;;;;5007858;28;20209;-72
2023/09/15 01:22:03;;;;;;;0.90;0.70;;;18.00;99.90;;;;;;5009184;28;20243;-71
2023/09/15 01:24:54;;;;;;;1.30;0.90;;;18.10;99.90;;;;;;4994577;28;20640;-71
2023/09/15 01:27:52;;;;;;;0.70;0.55;;;17.90;99.90;;;;;;4982531;28;20257;-71
2023/09/15 01:30:24;;;;;;;2.58;0.88;;;18.00;99.90;;;;;;5009702;28;20233;-70
2023/09/15 01:32:55;;;;;;;0.80;0.60;;;18.00;99.90;;;;;;5002444;28;20297;-71
2023/09/15 01:35:25;;;;;;;1.85;0.70;;;18.10;99.90;;;;;;5005116;28;20202;-71
2023/09/15 01:37:53;;;;;;;4.30;0.60;;;18.00;99.90;;;;;;4999274;28;20255;-70
2023/09/15 01:40:20;;;;;;;0.77;0.60;;;17.90;99.90;;;;;;5008814;28;20206;-71
2023/09/15 01:42:51;;;;;;;1.58;0.80;;;17.80;99.90;;;;;;5003553;28;20233;-71
2023/09/15 01:45:19;;;;;;;0.90;0.60;;;17.80;99.90;;;;;;5000082;28;20202;-70
2023/09/15 01:47:49;;;;;;;1.30;0.82;;;17.90;99.90;;;;;;4996189;28;20695;-70
2023/09/15 01:50:18;;;;;;;3.17;0.90;;;17.90;99.90;;;;;;5005567;28;20205;-73
2023/09/15 01:52:46;;;;;;;1.10;0.90;;;17.80;99.90;;;;;;5000219;28;20226;-71
2023/09/15 01:55:15;;;;;;;1.35;0.80;;;17.90;99.90;;;;;;5009373;28;20201;-71
2023/09/15 01:57:43;;;;;;;0.70;0.63;;;18.00;99.90;;;;;;5005077;28;20248;-71
2023/09/15 02:00:13;;;;;;;0.70;0.60;;;18.20;99.90;;;;;;5008451;28;20202;-71
2023/09/15 02:02:41;;;;;;;1.98;0.60;;;18.10;99.90;;;;;;5004973;28;20229;-71
2023/09/15 02:05:15;;;;;;;1.23;0.80;;;18.20;99.90;;;;;;5004912;28;20739;-71
2023/09/15 02:07:43;;;;;;;2.72;1.00;;;18.20;99.90;;;;;;5001736;28;20591;-70
2023/09/15 02:10:11;;;;;;;1.30;0.70;;;18.20;99.90;;;;;;5009204;28;20202;-70
2023/09/15 02:12:39;;;;;;;1.00;0.90;;;18.20;99.90;;;;;;5010105;28;20221;-71
2023/09/15 02:15:08;;;;;;;0.90;0.80;;;18.10;99.90;;;;;;5003909;28;20217;-71
2023/09/15 02:17:37;;;;;;;0.90;0.80;;;18.00;99.90;;;;;;4999040;28;20268;-70
2023/09/15 02:20:11;;;;;;;2.00;0.70;;;17.90;99.90;;;;;;5004351;28;20229;-70
2023/09/15 02:22:43;;;;;;;1.10;0.80;;;17.90;99.90;;;;;;4997630;28;20283;-70
2023/09/15 02:25:11;;;;;;;2.10;0.70;;;17.80;99.90;;;;;;5007107;28;20216;-70
2023/09/15 02:27:39;;;;;;;0.90;0.70;;;17.60;99.90;;;;;;5000848;28;20212;-70
2023/09/15 02:30:09;;;;;;;1.65;0.85;;;17.60;99.90;;;;;;5006491;28;20201;-70
2023/09/15 02:32:36;;;;;;;0.95;0.80;;;17.60;99.90;;;;;;5008548;28;20598;-70
2023/09/15 02:35:05;;;;;;;1.08;0.77;;;17.60;99.90;;;;;;5003305;28;20263;-70
2023/09/15 02:37:33;;;;;;;1.35;0.85;;;17.80;99.90;;;;;;5005435;28;20205;-72
2023/09/15 02:40:04;;;;;;;1.23;0.82;;;17.80;99.90;;;;;;5008733;28;20212;-71
2023/09/15 02:42:33;;;;;;;6.93;0.75;;;17.70;99.90;;;;;;4998647;28;20308;-71
2023/09/15 02:45:01;;;;;;;1.00;0.80;;;17.70;99.90;;;;;;5000248;28;20202;-71
2023/09/15 02:47:29;;;;;;;0.90;0.70;;;17.70;99.90;;;;;;4998677;28;20591;-70
2023/09/15 02:49:57;;;;;;;1.35;0.80;;;17.40;99.90;;;;;;4997800;28;20283;-71
2023/09/15 02:52:25;;;;;;;1.05;0.80;;;17.20;99.90;;;;;;5003015;28;20228;-71
2023/09/15 02:54:53;;;;;;;2.05;0.90;;;17.20;99.90;;;;;;4997964;28;20217;-71
2023/09/15 02:57:23;;;;;;;1.33;0.85;;;16.80;99.90;;;;;;5001845;28;20617;-71
2023/09/15 02:59:53;;;;;;;0.80;0.80;;;16.90;99.90;;;;;;4999139;28;20221;-71
2023/09/15 03:02:21;;;;;;;1.33;0.80;;;17.10;99.90;;;;;;5006958;28;20631;-70
2023/09/15 03:04:50;;;;;;;2.17;0.90;;;17.20;99.90;;;;;;5006714;28;20687;-71
2023/09/15 03:07:18;;;;;;;1.13;0.70;;;17.20;99.90;;;;;;5001156;28;20197;-71
2023/09/15 03:09:46;;;;;;;1.67;0.85;;;17.10;99.90;;;;;;5003988;28;20209;-70
2023/09/15 03:12:13;;;;;;;1.08;0.70;;;17.20;99.90;;;;;;5008234;28;20197;-71
2023/09/15 03:14:43;;;;;;;0.90;0.80;;;17.40;99.90;;;;;;4995477;28;20206;-70
2023/09/15 03:17:11;;;;;;;0.82;0.60;;;17.40;99.90;;;;;;4990922;28;20224;-69
2023/09/15 03:19:39;;;;;;;2.35;0.85;;;17.50;99.90;;;;;;4997362;28;20559;-69
2023/09/15 03:22:07;;;;;;;1.10;0.70;;;17.50;99.90;;;;;;5009369;28;20502;-69
2023/09/15 03:24:37;;;;;;;1.02;0.70;;;17.40;99.90;;;;;;5001119;28;20205;-70
2023/09/15 03:27:06;;;;;;;1.20;0.60;;;17.30;99.90;;;;;;5002936;28;20206;-69
2023/09/15 03:29:34;;;;;;;1.33;0.80;;;17.30;99.90;;;;;;4996403;28;20216;-69
2023/09/15 03:32:03;;;;;;;1.30;1.20;;;17.50;99.90;;;;;;5009690;28;20220;-71
2023/09/15 03:34:31;;;;;;;1.42;0.93;;;17.60;99.90;;;;;;5000432;28;20206;-70
2023/09/15 03:37:01;;;;;;;1.70;0.70;;;17.60;99.90;;;;;;5010711;28;20675;-70
2023/09/15 03:39:29;;;;;;;0.90;0.70;;;17.70;99.90;;;;;;5009089;28;20202;-70
2023/09/15 03:41:57;;;;;;;0.90;0.70;;;17.80;99.90;;;;;;5012958;28;20698;-72
2023/09/15 03:44:25;;;;;;;0.80;0.60;;;17.80;99.90;;;;;;5009501;28;20233;-70
2023/09/15 03:46:53;;;;;;;1.23;0.60;;;17.70;99.90;;;;;;5011999;28;20205;-71
2023/09/15 03:49:23;;;;;;;1.35;0.70;;;17.60;99.90;;;;;;5006050;28;20209;-70
2023/09/15 03:51:51;;;;;;;2.40;0.80;;;17.60;99.90;;;;;;5008979;28;20210;-73
2023/09/15 03:54:19;;;;;;;1.10;0.75;;;17.40;99.90;;;;;;5013409;28;20229;-69
2023/09/15 03:56:47;;;;;;;0.80;0.60;;;17.30;99.90;;;;;;5012160;28;20205;-70
2023/09/15 03:59:15;;;;;;;1.30;0.82;;;17.20;99.90;;;;;;5007119;28;20202;-69
2023/09/15 04:01:42;;;;;;;1.67;1.17;;;17.40;99.90;;;;;;5007922;28;20197;-64
2023/09/15 04:04:11;;;;;;;1.13;0.75;;;17.00;99.90;;;;;;4999872;28;20355;-65
2023/09/15 04:06:41;;;;;;;0.70;0.68;;;16.50;99.90;;;;;;4999359;28;20220;-66
2023/09/15 04:09:09;;;;;;;1.70;0.98;;;16.00;99.90;;;;;;5001679;28;20308;-65
2023/09/15 04:11:37;;;;;;;1.95;0.80;;;15.40;99.90;;;;;;4997279;28;20208;-65
2023/09/15 04:14:05;;;;;;;1.27;1.00;;;15.00;99.90;;;;;;4998546;28;20900;-64
2023/09/15 04:16:35;;;;;;;1.00;0.90;;;14.70;99.90;;;;;;4997898;28;20221;-66
2023/09/15 04:19:03;;;;;;;1.98;0.90;;;14.40;99.90;;;;;;4997916;28;21203;-65
2023/09/15 04:21:33;;;;;;;2.80;1.10;;;14.10;99.90;;;;;;4996831;28;20255;-65
2023/09/15 04:24:03;;;;;;;1.60;1.27;;;14.00;99.90;;;;;;4999893;28;20322;-65
2023/09/15 04:26:31;;;;;;;2.15;1.20;;;13.80;99.90;;;;;;4998033;28;20263;-65
2023/09/15 04:28:59;;;;;;;2.15;1.08;;;13.70;99.90;;;;;;5000271;28;20216;-66
2023/09/15 04:31:27;;;;;;;2.63;0.80;;;13.70;99.90;;;;;;4996690;28;21129;-67
2023/09/15 04:33:55;;;;;;;1.20;1.08;;;13.50;99.90;;;;;;4997081;28;20213;-68
2023/09/15 04:36:24;;;;;;;1.08;0.98;;;13.40;99.90;;;;;;4999469;28;20210;-65
2023/09/15 04:38:52;;;;;;;0.95;0.80;;;13.30;99.90;;;;;;4997250;28;20583;-66
2023/09/15 04:41:21;;;;;;;1.30;1.20;;;13.20;99.90;;;;;;4997578;28;20296;-67
2023/09/15 04:43:51;;;;;;;1.55;1.15;;;13.10;99.90;;;;;;4997696;28;20233;-67
2023/09/15 04:46:19;;;;;;;2.65;0.90;;;13.10;99.90;;;;;;4998122;28;20205;-67
2023/09/15 04:48:47;;;;;;;3.45;1.13;;;13.10;99.90;;;;;;4997406;28;20774;-66
2023/09/15 04:51:15;;;;;;;3.35;1.20;;;13.00;99.90;;;;;;4997784;28;20213;-65
2023/09/15 04:53:43;;;;;;;2.67;1.40;;;13.00;99.90;;;;;;4998819;28;20225;-66
2023/09/15 04:56:11;;;;;;;1.23;1.13;;;13.00;99.90;;;;;;4998358;28;20213;-67
2023/09/15 04:58:43;;;;;;;1.83;1.10;;;12.80;99.90;;;;;;4995829;28;20236;-66
2023/09/15 05:01:13;;;;;;;2.03;1.23;;;12.70;99.90;;;;;;4998473;28;20216;-67
2023/09/15 05:03:42;;;;;;;1.45;1.20;;;12.70;99.90;;;;;;4998502;28;20225;-67
2023/09/15 05:06:10;;;;;;;3.20;1.60;;;12.60;99.90;;;;;;4999436;28;20216;-67
2023/09/15 05:08:38;;;;;;;1.40;1.25;;;12.50;99.90;;;;;;4998892;28;20217;-67
2023/09/15 05:11:07;;;;;;;1.88;1.60;;;12.50;99.90;;;;;;4996071;28;20217;-69
2023/09/15 05:13:35;;;;;;;1.60;1.40;;;12.50;99.90;;;;;;4997881;28;20219;-67
2023/09/15 05:16:04;;;;;;;1.50;1.40;;;12.50;99.90;;;;;;4999260;28;20220;-67
2023/09/15 05:18:33;;;;;;;1.35;1.10;;;12.50;99.90;;;;;;4996261;28;20664;-67
2023/09/15 05:21:01;;;;;;;1.10;1.00;;;12.50;99.90;;;;;;4995354;28;20680;-67
2023/09/15 05:23:29;;;;;;;1.60;1.40;;;12.50;99.90;;;;;;4996881;28;20232;-68
2023/09/15 05:25:57;;;;;;;1.98;1.15;;;12.50;99.90;;;;;;4997117;28;20202;-68
2023/09/15 05:28:25;;;;;;;1.80;1.05;;;12.60;99.90;;;;;;4997677;28;20695;-67
2023/09/15 05:30:59;;;;;;;1.10;1.00;;;12.60;99.90;;;;;;4996166;28;20232;-67
2023/09/15 05:33:29;;;;;;;1.50;1.40;;;12.60;99.90;;;;;;4997080;28;20217;-68
2023/09/15 05:35:57;;;;;;;1.63;1.52;;;12.60;99.90;;;;;;4998428;28;20201;-67
2023/09/15 05:38:26;;;;;;;3.72;1.65;;;12.70;99.90;;;;;;4996954;28;20202;-68
2023/09/15 05:40:54;;;;;;;1.33;1.23;;;12.80;99.90;;;;;;4994883;28;20208;-68
2023/09/15 05:43:22;;;;;;;1.70;1.35;;;12.80;99.90;;;;;;4998584;28;20786;-67
2023/09/15 05:45:51;;;;;;;3.10;1.52;;;12.80;99.90;;;;;;4998159;28;20343;-67
2023/09/15 05:48:22;;;;;;;1.55;1.30;;;12.90;99.90;;;;;;4997665;28;20236;-68
2023/09/15 05:50:52;;;;;;;2.15;1.48;;;13.00;99.90;;;;;;4996568;28;20692;-68
2023/09/15 05:53:21;;;;;;;2.10;1.50;;;13.00;99.90;;;;;;4996803;28;20236;-67
2023/09/15 05:55:49;;;;;;;3.33;1.45;;;13.10;99.90;;;;;;4998573;28;20205;-69
2023/09/15 05:58:17;;;;;;;1.20;1.10;;;13.10;99.90;;;;;;4997850;28;20219;-69
2023/09/15 06:00:45;;;;;;;1.50;1.33;;;13.20;99.90;;;;;;4997419;28;20770;-66
2023/09/15 06:03:13;;;;;;;1.52;1.42;;;13.30;99.90;;;;;;4995054;28;20221;-70
2023/09/15 06:05:41;;;;;;;2.10;1.55;;;13.40;99.90;;;;;;4994799;28;20841;-67
2023/09/15 06:08:11;;;;;;;2.05;1.60;;;13.40;99.90;;;;;;4998036;28;20217;-66
2023/09/15 06:10:40;;;;;;;2.65;1.50;;;13.50;99.90;;;;;;4994286;28;20208;-66
2023/09/15 06:13:08;;;;;;;4.18;1.50;;;13.60;99.90;;;;;;4996677;28;20232;-66
2023/09/15 06:15:36;;;;;;;2.05;1.60;;;13.60;99.90;;;;;;4999153;28;20194;-66
2023/09/15 06:18:05;;;;;;;2.28;1.45;;;13.70;99.90;;;;;;5007585;28;20268;-66
2023/09/15 06:20:33;;;;;;;3.38;1.70;;;13.60;99.90;;;;;;4995054;28;20202;-66
2023/09/15 06:23:01;;;;;;;1.80;1.40;;;13.70;99.90;;;;;;5004643;28;20768;-66
2023/09/15 06:25:31;;;;;;;2.60;1.63;;;13.70;99.90;;;;;;5001290;28;20221;-66
2023/09/15 06:28:00;;;;;;;2.47;1.88;;;13.80;99.90;;;;;;4991683;28;20216;-65
2023/09/15 06:30:47;;;;;;;1.70;1.40;;;13.90;99.90;;;;;;5001041;28;20636;-66
2023/09/15 06:33:15;;;;;;;5.25;1.80;;;13.90;99.90;;;;;;5000639;28;20226;-66
2023/09/15 06:35:43;;;;;;;2.05;1.80;;;13.90;99.90;;;;;;4991491;28;20602;-66
2023/09/15 06:38:11;;;;;;;2.20;1.80;;;14.00;99.90;;;;;;4991891;28;20202;-66
2023/09/15 06:40:40;;;;;;;1.98;1.75;;;14.00;99.90;;;;;;5009708;28;20617;-66
2023/09/15 06:43:09;;;;;;;1.92;1.70;;;14.00;99.90;;;;;;5004759;28;20284;-66
2023/09/15 06:45:37;;;;;;;2.45;1.48;;;14.10;99.90;;;;;;4992523;28;20232;-66
2023/09/15 06:48:06;;;;;;;2.10;2.00;;;14.10;99.90;;;;;;4997440;28;20194;-66
2023/09/15 06:50:34;;;;;;;4.18;1.95;;;14.20;99.90;;;;;;4999014;28;20702;-66
2023/09/15 06:53:01;;;;;;;2.75;1.90;;;14.20;99.90;;;;;;4991276;28;20242;-66
2023/09/15 06:55:30;;;;;;;2.45;1.75;;;14.30;99.90;;;;;;4999216;28;20260;-66
2023/09/15 06:58:00;;;;;;;2.33;2.13;;;14.30;99.90;;;;;;4999621;28;20288;-65
2023/09/15 07:00:28;;;;;;;2.65;2.00;;;14.40;99.90;;;;;;4992904;28;20248;-65
2023/09/15 07:02:56;;;;;;;2.58;2.28;;;14.40;99.90;;;;;;4999434;28;20218;-65
2023/09/15 07:05:23;;;;;;;3.47;2.40;;;14.50;99.90;;;;;;4991431;28;20236;-64
2023/09/15 07:07:51;;;;;;;3.10;2.08;;;14.60;99.90;;;;;;4991532;28;20309;-65
2023/09/15 07:10:19;;;;;;;4.28;2.20;;;14.70;99.90;;;;;;5008097;28;20201;-65
2023/09/15 07:12:47;;;;;;;2.90;2.67;;;14.80;99.90;;;;;;5009887;28;20704;-65
2023/09/15 07:15:17;;;;;;;4.28;2.20;;;14.80;99.90;;;;;;4997476;28;20564;-65
2023/09/15 07:17:45;;;;;;;3.30;2.05;;;14.90;99.90;;;;;;4995884;28;20213;-65
2023/09/15 07:20:13;;;;;;;2.35;2.15;;;15.00;99.90;;;;;;4995390;28;20202;-65
2023/09/15 07:22:41;;;;;;;2.47;2.28;;;15.10;99.90;;;;;;4994925;28;20760;-67
2023/09/15 07:25:09;;;;;;;2.47;2.28;;;15.20;99.90;;;;;;4994729;28;20217;-67
2023/09/15 07:27:37;;;;;;;1.90;1.80;;;15.40;99.90;;;;;;4994891;28;20268;-67
2023/09/15 07:30:06;;;;;;;2.60;2.40;;;15.50;99.90;;;;;;4996915;28;20581;-67
2023/09/15 07:32:35;;;;;;;2.42;2.22;;;15.60;99.90;;;;;;4997594;28;20229;-66
2023/09/15 07:35:04;;;;;;;2.67;2.47;;;15.80;99.90;;;;;;4995392;28;20216;-68
2023/09/15 07:37:32;;;;;;;2.72;2.20;;;15.90;99.90;;;;;;5003166;28;20201;-64
2023/09/15 07:40:00;;;;;;;2.97;2.67;;;16.00;99.90;;;;;;5009308;28;20209;-65
2023/09/15 07:42:28;;;;;;;2.65;2.42;;;16.10;99.90;;;;;;5014368;28;20228;-66
2023/09/15 07:44:56;;;;;;;2.30;2.03;;;16.20;99.90;;;;;;4997208;28;20217;-66
2023/09/15 07:47:25;;;;;;;4.50;3.10;;;16.20;99.90;;;;;;4998689;28;20681;-65
2023/09/15 07:49:55;;;;;;;3.35;2.42;;;16.40;99.90;;;;;;4994839;28;20296;-66
2023/09/15 07:52:24;;;;;;;2.78;2.58;;;16.50;99.90;;;;;;4994432;28;20241;-66
2023/09/15 07:54:53;;;;;;;2.03;1.83;;;16.60;99.90;;;;;;5002469;28;20212;-66
2023/09/15 07:57:21;;;;;;;2.22;2.03;;;16.80;99.90;;;;;;5001459;28;20209;-66
2023/09/15 07:59:49;;;;;;;5.65;2.63;;;16.90;99.90;;;;;;4997687;28;20209;-66
2023/09/15 08:02:20;;;;;;;2.30;2.10;;;17.00;99.90;;;;;;4999531;28;20608;-66
2023/09/15 08:04:49;;;;;;;2.92;2.70;;;17.20;99.90;;;;;;5002163;28;20571;-66
2023/09/15 08:07:18;;;;;;;3.80;2.78;;;17.30;99.90;;;;;;4994436;28;20216;-67
2023/09/15 08:09:46;;;;;;;2.85;2.60;;;17.50;99.90;;;;;;5012409;28;20202;-66
2023/09/15 08:12:16;;;;;;;5.03;2.72;;;17.50;99.90;;;;;;5013778;28;20687;-66
2023/09/15 08:14:44;;;;;;;2.10;1.90;;;17.60;99.90;;;;;;5003436;28;20205;-66
2023/09/15 08:17:12;;;;;;;2.38;2.08;;;17.90;99.90;;;;;;4993986;28;20272;-66
2023/09/15 08:19:57;;;;;;;3.28;2.97;;;17.90;99.90;;;;;;4994291;28;20206;-66
2023/09/15 08:22:27;;;;;;;2.75;1.90;;;18.00;99.90;;;;;;4994102;28;20234;-66
2023/09/15 08:24:55;;;;;;;3.25;2.38;;;18.10;99.90;;;;;;4992466;28;20213;-66
2023/09/15 08:27:25;;;;;;;3.50;3.10;;;18.20;99.90;;;;;;4994103;28;20208;-66
2023/09/15 08:29:53;;;;;;;2.47;2.28;;;18.40;99.90;;;;;;4998035;28;20222;-66
2023/09/15 08:32:21;;;;;;;2.20;1.80;;;18.50;99.90;;;;;;5000469;28;20205;-67
2023/09/15 08:34:49;;;;;;;2.97;2.67;;;18.60;99.90;;;;;;4994557;28;20620;-66
2023/09/15 08:37:17;;;;;;;3.08;2.03;;;18.80;99.90;;;;;;5001805;28;20202;-66
2023/09/15 08:39:46;;;;;;;2.63;2.40;;;18.90;99.90;;;;;;5005840;28;20283;-66
2023/09/15 08:42:21;;;;;;;2.88;2.63;;;19.00;99.90;;;;;;5012991;28;20212;-66
2023/09/15 08:44:52;;;;;;;3.03;2.40;;;19.00;99.90;;;;;;5000962;28;20201;-65
2023/09/15 08:47:20;;;;;;;3.33;2.50;;;19.10;99.90;;;;;;5004818;28;20217;-66
2023/09/15 08:49:50;;;;;;;2.33;2.10;;;19.30;99.90;;;;;;4993432;28;20202;-66
2023/09/15 08:52:18;;;;;;;3.25;2.70;;;19.40;99.90;;;;;;4993212;28;20672;-66
2023/09/15 08:54:49;;;;;;;4.15;2.33;;;19.60;99.90;;;;;;4992960;28;20220;-66
2023/09/15 08:57:17;;;;;;;3.88;2.22;;;19.80;99.90;;;;;;4993466;28;20198;-66
2023/09/15 08:59:45;;;;;;;4.93;2.78;;;20.00;99.90;;;;;;5002206;28;20220;-67
2023/09/15 09:02:14;;;;;;;2.55;1.98;;;20.10;99.90;;;;;;4999610;28;20582;-66
2023/09/15 09:04:42;;;;;;;2.67;2.42;;;20.40;99.90;;;;;;5001065;28;20629;-66
2023/09/15 09:07:12;;;;;;;3.03;2.58;;;20.50;99.90;;;;;;5001049;28;20253;-66
2023/09/15 09:09:41;;;;;;;2.20;2.00;;;20.60;99.90;;;;;;5004636;28;20301;-67
2023/09/15 09:12:11;;;;;;;3.60;2.70;;;20.70;99.90;;;;;;5012679;28;20208;-67
2023/09/15 09:14:39;;;;;;;2.60;2.35;;;20.80;99.90;;;;;;5000596;28;20212;-67
2023/09/15 09:17:08;;;;;;;2.17;2.05;;;20.90;99.90;;;;;;4997085;28;20209;-67
2023/09/15 09:19:37;;;;;;;2.80;2.53;;;20.90;99.90;;;;;;4996437;28;20240;-67
2023/09/15 09:22:07;;;;;;;2.55;2.35;;;21.10;99.90;;;;;;4993026;28;20202;-67
2023/09/15 09:24:35;;;;;;;2.03;1.90;;;21.40;99.90;;;;;;4992903;28;20206;-67
2023/09/15 09:27:09;;;;;;;3.28;2.63;;;21.50;99.90;;;;;;4992734;28;20711;-67
2023/09/15 09:29:39;;;;;;;2.20;1.77;;;21.90;99.90;;;;;;4999751;28;20205;-67
2023/09/15 09:32:07;;;;;;;3.13;2.83;;;22.30;99.90;;;;;;4999743;28;20213;-67
2023/09/15 09:34:35;;;;;;;3.53;2.55;;;22.20;99.90;;;;;;4992812;28;20210;-67
2023/09/15 09:37:15;;;;;;;1.90;1.73;;;22.40;99.90;;;;;;4997746;28;20283;-67
2023/09/15 09:39:44;;;;;;;2.08;1.98;;;22.60;99.90;;;;;;5007112;28;20201;-67
2023/09/15 09:42:12;;;;;;;2.67;2.08;;;22.70;99.90;;;;;;5008133;28;20194;-67
2023/09/15 09:44:42;;;;;;;2.08;1.85;;;22.90;99.90;;;;;;4999139;28;20357;-67
2023/09/15 09:47:10;;;;;;;3.92;2.70;;;22.90;99.90;;;;;;4996741;28;20217;-67
2023/09/15 09:49:39;;;;;;;3.72;2.50;;;23.00;99.90;;;;;;4996192;28;20681;-67
2023/09/15 09:52:07;;;;;;;5.55;2.20;;;23.20;99.90;;;;;;4996322;28;20208;-67
2023/09/15 09:54:35;;;;;;;2.00;1.80;;;23.10;99.90;;;;;;5175599;23;20697;-67
2023/09/15 09:57:05;;;;;;;2.20;2.00;;;23.20;99.90;;;;;;5070586;28;20206;-66
2023/09/15 09:59:36;;;;;;;6.50;3.08;;;23.40;99.90;;;;;;5071169;28;20203;-67
2023/09/15 10:02:06;;;;;;;2.40;2.20;;;23.50;99.90;;;;;;5071328;28;20260;-66
2023/09/15 10:04:34;;;;;;;8.32;2.65;;;23.40;99.90;;;;;;5062877;28;20229;-66
2023/09/15 10:07:03;;;;;;;2.65;2.30;;;23.40;99.90;;;;;;5059623;28;20686;-67
2023/09/15 10:09:32;;;;;;;2.17;1.90;;;23.60;99.90;;;;;;5055491;28;20199;-65
2023/09/15 10:12:00;;;;;;;2.50;2.30;;;24.10;99.90;;;;;;5050852;28;20262;-65
2023/09/15 10:14:30;;;;;;;2.45;1.92;;;24.40;99.90;;;;;;5058720;28;20304;-65
2023/09/15 10:16:59;;;;;;;2.50;2.30;;;24.70;99.90;;;;;;5061332;28;20575;-65
2023/09/15 10:19:28;;;;;;;2.50;2.08;;;24.60;99.90;;;;;;5064976;28;20208;-65
2023/09/15 10:21:57;;;;;;;2.65;2.28;;;24.60;99.90;;;;;;5060731;28;20211;-64
2023/09/15 10:24:26;;;;;;;3.88;3.22;;;24.40;99.90;;;;;;5062871;28;20222;-65
2023/09/15 10:26:55;;;;;;;2.40;2.20;;;24.50;99.90;;;;;;5060717;28;20708;-65
2023/09/15 10:29:29;;;;;;;2.00;1.77;;;24.70;99.90;;;;;;5063115;28;20252;-65
2023/09/15 10:31:59;;;;;;;2.10;1.95;;;25.10;99.90;;;;;;5060489;28;20202;-65
2023/09/15 10:34:29;;;;;;;1.98;1.67;;;25.20;99.90;;;;;;5058790;28;20228;-65
2023/09/15 10:37:01;;;;;;;8.70;2.67;;;25.30;99.90;;;;;;5060647;28;20204;-65
2023/09/15 10:39:36;;;;;;;2.55;2.35;;;25.30;99.90;;;;;;5056091;28;20192;-65
2023/09/15 10:42:09;;;;;;;2.45;2.25;;;25.50;99.90;;;;;;5050398;28;20286;-65
2023/09/15 10:44:37;;;;;;;2.90;2.60;;;25.40;99.90;;;;;;5058894;28;20223;-66
2023/09/15 10:47:15;;;;;;;2.70;2.50;;;25.70;99.90;;;;;;5060571;28;20249;-65
2023/09/15 10:49:52;;;;;;;2.65;2.45;;;26.10;99.90;;;;;;5062342;28;20704;-65
2023/09/15 10:52:32;;;;;;;2.28;2.08;;;25.90;99.90;;;;;;5054451;28;20203;-64
2023/09/15 10:55:00;;;;;;;3.67;1.90;;;25.50;99.90;;;;;;5061297;28;20375;-65
2023/09/15 10:57:29;;;;;;;3.30;2.72;;;25.70;99.90;;;;;;5062117;28;20199;-65
2023/09/15 10:59:57;;;;;;;4.32;2.95;;;25.90;99.90;;;;;;5060596;28;20249;-65
2023/09/15 11:02:26;;;;;;;2.08;1.90;;;25.80;99.90;;;;;;5058915;28;20208;-65
2023/09/15 11:04:55;;;;;;;2.20;2.00;;;25.90;99.90;;;;;;5059422;28;20224;-65
2023/09/15 11:07:24;;;;;;;1.65;1.55;;;25.90;99.90;;;;;;5061731;28;20219;-65
2023/09/15 11:09:56;;;;;;;2.97;2.13;;;26.10;99.90;;;;;;5052781;28;20218;-65
2023/09/15 11:12:24;;;;;;;2.25;2.05;;;26.40;99.90;;;;;;5050532;28;20204;-65
2023/09/15 11:14:59;;;;;;;3.35;1.98;;;26.30;99.90;;;;;;5059148;28;20239;-65
2023/09/15 11:17:28;;;;;;;2.45;2.25;;;26.50;99.90;;;;;;5062309;28;20701;-63
2023/09/15 11:19:59;;;;;;;2.40;2.08;;;26.50;99.90;;;;;;5060712;28;20620;-65
2023/09/15 11:22:27;;;;;;;3.08;2.78;;;26.30;99.90;;;;;;5061261;28;20211;-65
2023/09/15 11:24:57;;;;;;;2.00;1.85;;;26.40;99.90;;;;;;5060766;28;20234;-65
2023/09/15 11:27:43;;;;;;;1.70;1.60;;;26.60;99.90;;;;;;5058537;28;20216;-65
2023/09/15 11:30:12;;;;;;;1.85;1.75;;;26.80;99.90;;;;;;5061574;28;20207;-65
2023/09/15 11:32:40;;;;;;;2.00;1.90;;;26.90;99.90;;;;;;5061833;28;20268;-65
2023/09/15 11:35:12;;;;;;;1.95;1.85;;;26.80;99.90;;;;;;5058919;28;20583;-66
2023/09/15 11:37:41;;;;;;;4.68;1.63;;;27.00;99.90;;;;;;5054574;28;20200;-65
2023/09/15 11:40:20;;;;;;;1.70;1.60;;;26.70;99.90;;;;;;5050042;28;21119;-65
2023/09/15 11:42:55;;;;;;;1.90;1.80;;;27.00;99.90;;;;;;5050166;28;20207;-65
2023/09/15 11:45:26;;;;;;;2.08;1.92;;;27.10;99.90;;;;;;5051523;28;20215;-65
2023/09/15 11:47:55;;;;;;;2.00;1.73;;;27.00;99.90;;;;;;5058493;28;20611;-65
2023/09/15 11:50:27;;;;;;;1.92;1.60;;;27.40;99.50;;;;;;5061934;28;20214;-65
2023/09/15 11:52:55;;;;;;;1.65;1.55;;;27.60;99.40;;;;;;5060025;28;20265;-64
2023/09/15 11:55:24;;;;;;;2.33;2.10;;;27.90;98.40;;;;;;5058354;28;20212;-65
2023/09/15 11:57:53;;;;;;;2.00;1.80;;;27.90;99.40;;;;;;5067050;28;20294;-64
2023/09/15 12:00:22;;;;;;;1.58;1.40;;;27.70;98.70;;;;;;5062073;28;20635;-65
2023/09/15 12:02:52;;;;;;;2.03;1.45;;;27.90;98.00;;;;;;5061976;28;20212;-65
2023/09/15 12:05:22;;;;;;;1.40;1.30;;;28.20;98.30;;;;;;5054110;28;20577;-65
2023/09/15 12:07:51;;;;;;;1.45;1.20;;;28.30;98.40;;;;;;5062540;28;20222;-65
2023/09/15 12:10:22;;;;;;;1.50;1.17;;;28.60;96.70;;;;;;5050815;28;20643;-65
2023/09/15 12:12:50;;;;;;;2.30;1.67;;;28.90;97.00;;;;;;5053378;28;20381;-65
2023/09/15 12:15:18;;;;;;;2.75;1.35;;;28.60;96.80;;;;;;5053574;28;20492;-67
2023/09/15 12:17:47;;;;;;;1.88;1.55;;;28.60;97.30;;;;;;5061527;28;20204;-67
2023/09/15 12:20:15;;;;;;;2.08;1.40;;;28.90;97.20;;;;;;5064473;28;20207;-67
2023/09/15 12:22:45;;;;;;;1.95;1.75;;;28.90;95.90;;;;;;5057850;28;20196;-67
2023/09/15 12:25:16;;;;;;;2.67;1.50;;;29.00;95.80;;;;;;5056306;28;20571;-67
2023/09/15 12:27:45;;;;;;;1.55;1.20;;;29.20;94.20;;;;;;5055254;28;20223;-67
2023/09/15 12:30:15;;;;;;;1.38;1.17;;;29.50;94.20;;;;;;5061994;28;20203;-67
2023/09/15 12:32:46;;;;;;;0.93;0.93;;;29.00;93.60;;;;;;5061417;28;20204;-66
2023/09/15 12:35:15;;;;;;;1.60;1.50;;;29.30;92.80;;;;;;5063867;28;20203;-65
2023/09/15 12:37:45;;;;;;;1.60;1.50;;;29.70;93.70;;;;;;5064651;28;20203;-66
2023/09/15 12:40:15;;;;;;;1.80;1.70;;;29.60;93.30;;;;;;5061260;28;20213;-65
2023/09/15 12:42:44;;;;;;;1.65;1.38;;;29.20;94.00;;;;;;5064603;28;20199;-67
2023/09/15 12:45:13;;;;;;;3.65;1.63;;;29.20;93.60;;;;;;5062028;28;20208;-67
2023/09/15 12:47:41;;;;;;;1.70;1.40;;;29.20;92.70;;;;;;5065439;28;20727;-67
2023/09/15 12:50:10;;;;;;;1.33;1.13;;;29.20;92.90;;;;;;5062543;28;20218;-67
2023/09/15 12:52:40;;;;;;;1.50;1.40;;;29.50;92.60;;;;;;5061028;28;20203;-67
2023/09/15 12:55:08;;;;;;;1.40;1.30;;;29.40;92.70;;;;;;5062310;28;20608;-67
2023/09/15 12:57:38;;;;;;;1.58;1.27;;;29.60;91.80;;;;;;5064235;28;20210;-67
2023/09/15 13:00:07;;;;;;;1.42;1.30;;;29.60;92.60;;;;;;5062874;28;20210;-65